< < Back
Terminal Aerodrome Forecast


Current Version              Previous Versions:   1  2  3  4  5  6  7  8  9  

Terminal Aerodrome Forecast

366
FTUS42 KCAE 272041 AAA
TAFCAE
TAF AMD
KCAE 272041Z 2721/2818 11010KT P6SM SCT060
     FM280100 VRB03KT P6SM BKN250
     FM281400 24006KT P6SM SCT040 BKN100=



Latest METAR

268
SAUS80 KWBC 280100
MTRCAE
METAR KCAE 280056Z 11006KT 10SM SCT060 BKN150 30/20 A2999 RMK AO2 SLP153
OCNL LTGICCC DSNT NW T03000200


USA.gov is the U.S. government's official web portal to all federal, state and local government web resources and services.